Pickwick Observed Data For Previous 48 Hours

Caption
Day and Hour Reservoir Elevation (behind dam)* Tailwater Elevation (below dam)* Average Hourly Discharge*
1/16/2018 1 AM CST 409.53 356.93 21,230
1/16/2018 2 AM CST 409.50 357.13 21,305
1/16/2018 3 AM CST 409.46 357.77 30,814
1/16/2018 4 AM CST 409.43 358.19 31,294
1/16/2018 5 AM CST 409.30 358.94 41,657
1/16/2018 6 AM CST 409.24 359.88 51,923
1/16/2018 7 AM CST 409.35 360.60 52,402
1/16/2018 8 AM CST 409.40 361.03 52,909
1/16/2018 9 AM CST 409.35 361.21 53,001
1/16/2018 10 AM CST 409.33 361.39 53,116
1/16/2018 11 AM CST 409.37 361.47 53,383
1/16/2018 12 PM CST 409.40 361.08 44,363
1/16/2018 1 PM CST 409.38 360.87 44,613
1/16/2018 2 PM CST 409.36 360.80 44,558
1/16/2018 3 PM CST 409.27 360.78 44,704
1/16/2018 4 PM CST 409.22 360.75 44,740
1/16/2018 5 PM CST 409.16 360.75 45,256
1/16/2018 6 PM CST 409.15 361.19 53,057
1/16/2018 7 PM CST 409.10 361.44 53,459
1/16/2018 8 PM CST 409.15 361.54 53,470
1/16/2018 9 PM CST 409.19 361.59 53,202
1/16/2018 10 PM CST 409.25 361.60 53,038
1/16/2018 11 PM CST 409.30 361.20 44,579
1/17/2018 12 AM CST 409.42 360.45 31,700
1/17/2018 1 AM CST 409.40 359.80 31,132
1/17/2018 2 AM CST 409.29 359.41 31,181
1/17/2018 3 AM CST 409.26 359.21 31,257
1/17/2018 4 AM CST 409.27 359.10 31,435
1/17/2018 5 AM CST 409.24 359.34 36,908
1/17/2018 6 AM CST 409.23 359.47 37,821
1/17/2018 7 AM CST 409.32 359.49 37,788
1/17/2018 8 AM CST 409.33 359.86 44,946
1/17/2018 9 AM CST 409.40 360.58 52,379
1/17/2018 10 AM CST 409.49 361.00 52,677
1/17/2018 11 AM CST 409.58 361.14 52,380
1/17/2018 12 PM CST 409.60 360.74 43,405
1/17/2018 1 PM CST 409.54 360.02 34,224
1/17/2018 2 PM CST 409.45 359.70 34,588
1/17/2018 3 PM CST 409.39 359.45 34,742
1/17/2018 4 PM CST 409.42 359.35 34,818
1/17/2018 5 PM CST 409.39 359.33 35,945
1/17/2018 6 PM CST 409.33 359.95 46,486
1/17/2018 7 PM CST 409.34 360.60 52,429
1/17/2018 8 PM CST 409.37 360.96 52,563
1/17/2018 9 PM CST 409.41 361.22 52,594
1/17/2018 10 PM CST 409.43 361.24 53,011
1/17/2018 11 PM CST 409.52 360.88 45,150
1/18/2018 12 AM CST 409.59 360.23 35,486
1/18/2018 1 AM CST 409.57 359.66 35,069
1/18/2018 2 AM CST 409.41 359.47 36,234
1/18/2018 3 AM CST 409.41 360.26 52,077
1/18/2018 4 AM CST 409.49 360.83 52,546
1/18/2018 5 AM CST 409.55 361.17 52,550

Elevations are in feet above sea level. Discharges are in cubic feet per second and are reported at the end of the hour.